createdAt,value
2019-04-29T00:02:59.114Z,25.30
2019-04-29T00:08:03.667Z,25.40
2019-04-29T00:13:17.804Z,25.80
2019-04-29T00:18:28.032Z,24.75
2019-04-29T00:23:36.182Z,27.73
2019-04-29T00:28:46.901Z,28.15
2019-04-29T00:33:57.585Z,28.23
2019-04-29T00:39:27.672Z,27.17
2019-04-29T00:45:12.014Z,26.87
2019-04-29T00:49:52.740Z,25.68
2019-04-29T00:55:16.472Z,23.22
2019-04-29T01:00:46.979Z,23.90
2019-04-29T01:05:58.691Z,21.33
2019-04-29T01:11:38.668Z,23.05
2019-04-29T01:16:22.421Z,25.00
2019-04-29T01:21:30.745Z,24.35
2019-04-29T01:27:00.054Z,23.83
2019-04-29T01:32:07.045Z,21.93
2019-04-29T01:37:21.951Z,21.60
2019-04-29T01:42:42.751Z,22.75
2019-04-29T01:47:44.239Z,23.10
2019-04-29T01:52:55.907Z,21.75
2019-04-29T01:58:00.709Z,22.22
2019-04-29T02:03:16.877Z,21.60
2019-04-29T02:14:06.709Z,22.65
2019-04-29T02:18:55.931Z,20.85
2019-04-29T02:24:09.387Z,21.52
2019-04-29T02:29:21.618Z,21.55
2019-04-29T02:34:27.858Z,23.30
2019-04-29T02:39:43.493Z,22.65
2019-04-29T02:44:57.648Z,22.75
2019-04-29T02:50:09.465Z,21.17
2019-04-29T02:55:22.651Z,23.67
2019-04-29T03:00:55.705Z,22.13
2019-04-29T03:06:08.459Z,21.65
2019-04-29T03:11:19.319Z,26.15
2019-04-29T03:16:31.104Z,23.60
2019-04-29T03:21:47.691Z,22.15
2019-04-29T03:27:00.115Z,25.77
2019-04-29T03:32:39.237Z,24.47
2019-04-29T03:37:43.324Z,23.47
2019-04-29T03:47:52.857Z,27.58
2019-04-29T03:53:47.533Z,26.93
2019-04-29T03:58:23.120Z,27.13
2019-04-29T04:03:24.365Z,28.70
2019-04-29T04:08:44.428Z,27.55
2019-04-29T04:13:59.652Z,30.02
2019-04-29T04:19:10.269Z,34.13
2019-04-29T04:24:22.845Z,32.55
2019-04-29T04:29:36.784Z,31.20
2019-04-29T04:34:55.698Z,32.85
2019-04-29T04:40:07.673Z,32.28
2019-04-29T04:45:21.021Z,33.30
2019-04-29T04:51:34.851Z,34.00
2019-04-29T04:55:39.777Z,35.10
2019-04-29T05:00:43.991Z,33.13
2019-04-29T05:05:48.226Z,33.50
2019-04-29T05:10:52.609Z,33.95
2019-04-29T05:15:56.838Z,32.50
2019-04-29T05:21:01.062Z,34.35
2019-04-29T05:26:05.373Z,46.13
2019-04-29T05:31:09.846Z,42.95
2019-04-29T05:36:33.994Z,36.68
2019-04-29T05:41:36.498Z,28.63
2019-04-29T05:46:50.969Z,36.93
2019-04-29T05:51:57.604Z,35.55
2019-04-29T05:57:02.773Z,30.92
2019-04-29T06:02:06.989Z,36.58
2019-04-29T06:07:11.217Z,39.67
2019-04-29T06:12:15.443Z,43.35
2019-04-29T06:17:19.778Z,45.05
2019-04-29T06:22:24.006Z,39.90
2019-04-29T06:27:28.265Z,44.00
2019-04-29T06:32:32.585Z,42.35
2019-04-29T06:37:37.125Z,43.33
2019-04-29T06:42:41.577Z,52.70
2019-04-29T06:47:46.014Z,56.13
2019-04-29T06:52:50.219Z,62.33
2019-04-29T06:57:54.562Z,61.10
2019-04-29T07:02:58.775Z,57.20
2019-04-29T07:08:02.998Z,54.33
2019-04-29T07:13:07.190Z,54.73
2019-04-29T07:18:11.412Z,54.35
2019-04-29T07:23:15.831Z,49.53
2019-04-29T07:28:20.067Z,47.30
2019-04-29T07:33:24.544Z,43.80
2019-04-29T07:38:40.659Z,37.48
2019-04-29T07:43:38.525Z,30.15
2019-04-29T07:48:42.071Z,31.85
2019-04-29T07:53:46.721Z,31.65
2019-04-29T07:58:51.124Z,28.20
2019-04-29T08:03:55.370Z,28.42
2019-04-29T08:09:07.058Z,25.23
2019-04-29T08:14:06.086Z,29.45
2019-04-29T08:19:10.264Z,24.43
2019-04-29T08:24:15.940Z,24.63
2019-04-29T08:29:20.389Z,25.37
2019-04-29T08:34:24.648Z,24.37
2019-04-29T08:39:29.469Z,24.02
2019-04-29T08:44:47.562Z,22.07
2019-04-29T08:49:52.150Z,22.98
2019-04-29T08:54:57.384Z,22.62
2019-04-29T09:00:01.674Z,23.75
2019-04-29T09:05:11.309Z,21.07
2019-04-29T09:10:14.875Z,21.25
2019-04-29T09:15:20.106Z,21.00
2019-04-29T09:20:24.310Z,21.00
2019-04-29T09:25:30.159Z,19.25
2019-04-29T09:30:34.364Z,18.55
2019-04-29T09:35:40.449Z,17.23
2019-04-29T09:40:59.495Z,16.93
2019-04-29T09:46:05.201Z,17.77
2019-04-29T09:51:17.173Z,15.95
2019-04-29T09:56:16.077Z,14.65
2019-04-29T10:01:33.689Z,15.72
2019-04-29T10:06:41.969Z,15.83
2019-04-29T10:11:46.222Z,15.85
2019-04-29T10:16:54.657Z,13.88
2019-04-29T10:21:58.867Z,16.35
2019-04-29T10:27:03.359Z,16.95
2019-04-29T10:32:09.293Z,17.48
2019-04-29T10:37:13.493Z,17.95
2019-04-29T10:42:19.341Z,18.20
2019-04-29T10:47:33.905Z,18.00
2019-04-29T10:52:38.678Z,18.87
2019-04-29T10:57:44.930Z,18.70
2019-04-29T11:02:51.195Z,17.92
2019-04-29T11:07:58.181Z,17.77
2019-04-29T11:13:03.047Z,18.20
2019-04-29T11:18:07.332Z,17.40
2019-04-29T11:23:31.334Z,18.23
2019-04-29T11:28:37.203Z,18.35
2019-04-29T11:33:57.870Z,18.52
2019-04-29T11:39:02.221Z,17.60
2019-04-29T11:44:06.435Z,17.50
2019-04-29T11:49:12.562Z,16.70
2019-04-29T11:54:18.068Z,16.05
2019-04-29T11:59:24.431Z,17.42
2019-04-29T12:04:33.429Z,16.80
2019-04-29T12:09:36.333Z,16.95
2019-04-29T12:14:47.881Z,17.02
2019-04-29T12:20:02.408Z,16.80
2019-04-29T12:25:07.704Z,15.18
2019-04-29T12:30:13.732Z,17.60
2019-04-29T12:35:25.011Z,17.52
2019-04-29T12:40:36.862Z,18.17
2019-04-29T12:46:00.873Z,16.45
2019-04-29T12:51:05.312Z,17.27
2019-04-29T12:56:11.326Z,18.05
2019-04-29T13:01:50.292Z,15.65
2019-04-29T13:06:49.975Z,16.10
2019-04-29T13:12:11.167Z,15.48
2019-04-29T13:17:17.254Z,16.70
2019-04-29T13:22:21.869Z,17.55
2019-04-29T13:27:26.692Z,17.25
2019-04-29T13:32:32.380Z,16.48
2019-04-29T13:37:37.169Z,17.12
2019-04-29T13:42:48.611Z,16.07
2019-04-29T13:47:52.112Z,15.45
2019-04-29T13:52:56.799Z,13.95
2019-04-29T13:58:01.127Z,14.78
2019-04-29T14:03:11.487Z,12.60
2019-04-29T14:08:15.604Z,11.70
2019-04-29T14:13:21.046Z,11.40
2019-04-29T14:18:25.633Z,11.60
2019-04-29T14:23:29.974Z,11.40
2019-04-29T14:28:34.639Z,11.45
2019-04-29T14:33:40.552Z,11.55
2019-04-29T14:38:44.763Z,11.63
2019-04-29T14:43:55.050Z,11.40
2019-04-29T14:49:06.041Z,11.88
2019-04-29T14:54:10.033Z,10.03
2019-04-29T14:59:14.463Z,11.25
2019-04-29T15:04:24.012Z,11.35
2019-04-29T15:09:28.897Z,11.73
2019-04-29T15:14:34.977Z,10.78
2019-04-29T15:19:58.985Z,10.65
2019-04-29T15:25:04.215Z,10.72
2019-04-29T15:30:09.239Z,10.63
2019-04-29T15:35:13.583Z,10.30
2019-04-29T15:40:20.750Z,10.98
2019-04-29T15:45:23.754Z,10.95
2019-04-29T15:50:28.520Z,10.85
2019-04-29T15:55:34.892Z,9.43
2019-04-29T16:00:40.651Z,9.83
2019-04-29T16:06:04.427Z,11.55
2019-04-29T16:10:57.855Z,10.00
2019-04-29T16:16:02.629Z,10.40
2019-04-29T16:21:06.870Z,10.32
2019-04-29T16:26:11.053Z,9.95
2019-04-29T16:31:15.407Z,10.23
2019-04-29T16:36:19.617Z,10.32
2019-04-29T16:41:41.022Z,9.25
2019-04-29T16:46:45.409Z,9.40
2019-04-29T16:51:53.462Z,8.45
2019-04-29T16:56:55.708Z,7.85
2019-04-29T17:01:59.924Z,8.05
2019-04-29T17:07:13.536Z,9.23
2019-04-29T17:12:10.260Z,8.13
2019-04-29T17:17:16.282Z,8.08
2019-04-29T17:22:25.990Z,7.42
2019-04-29T17:27:42.073Z,8.33
2019-04-29T17:32:49.111Z,8.73
2019-04-29T17:37:53.304Z,8.18
2019-04-29T17:43:04.814Z,8.10
2019-04-29T17:48:09.889Z,8.40
2019-04-29T17:53:17.464Z,9.00
2019-04-29T17:58:28.871Z,8.98
2019-04-29T18:03:41.507Z,8.85
2019-04-29T18:08:47.367Z,9.00
2019-04-29T18:13:52.568Z,9.70
2019-04-29T18:19:05.697Z,9.08
2019-04-29T18:24:15.331Z,7.83
2019-04-29T18:29:20.244Z,9.93
2019-04-29T18:34:25.245Z,9.18
2019-04-29T18:39:31.481Z,10.55
2019-04-29T18:44:36.048Z,9.48
2019-04-29T18:49:41.163Z,10.53
2019-04-29T18:54:47.076Z,10.88
2019-04-29T18:59:51.374Z,10.18
2019-04-29T19:04:57.825Z,10.28
2019-04-29T19:10:02.136Z,10.78
2019-04-29T19:15:11.444Z,10.98
2019-04-29T19:20:41.519Z,11.90
2019-04-29T20:03:21.204Z,14.50
2019-04-29T20:09:21.446Z,14.35
2019-04-29T20:38:56.649Z,15.45
2019-04-29T20:44:09.651Z,15.88
2019-04-29T20:49:16.404Z,15.93
2019-04-29T20:54:35.765Z,15.90
2019-04-29T20:59:42.121Z,16.60
2019-04-29T21:04:51.003Z,15.75
2019-04-29T21:09:59.887Z,17.15
2019-04-29T21:15:27.331Z,16.37
2019-04-29T21:20:35.192Z,16.00
2019-04-29T21:25:39.699Z,16.60
2019-04-29T21:30:48.110Z,16.15
2019-04-29T21:35:57.929Z,16.23
2019-04-29T21:41:21.805Z,15.70
2019-04-29T21:46:29.486Z,14.70
2019-04-29T21:51:35.518Z,15.90
2019-04-29T21:56:39.856Z,15.78
2019-04-29T22:01:47.632Z,16.57
2019-04-29T22:06:52.656Z,16.40
2019-04-29T22:11:58.227Z,16.52
2019-04-29T22:17:05.364Z,17.77
2019-04-29T22:22:24.054Z,17.05
2019-04-29T22:27:28.761Z,16.87
2019-04-29T22:32:40.748Z,15.90
2019-04-29T22:37:49.522Z,16.32
2019-04-29T22:43:04.577Z,15.32
2019-04-29T22:48:14.310Z,15.13
2019-04-29T22:53:15.142Z,15.75
2019-04-29T22:58:20.078Z,15.00
2019-04-29T23:03:24.381Z,15.93
2019-04-29T23:08:38.056Z,15.30
2019-04-29T23:13:41.529Z,15.00
2019-04-29T23:18:48.484Z,13.93
2019-04-29T23:24:13.280Z,13.40
2019-04-29T23:29:15.738Z,11.88
2019-04-29T23:34:27.800Z,10.55
2019-04-29T23:39:31.395Z,10.35
2019-04-29T23:44:37.724Z,10.90
2019-04-29T23:49:46.743Z,9.58
2019-04-29T23:54:52.539Z,9.80
